createdAt,value
2023-05-08T00:00:35.402Z,48.63
2023-05-08T00:01:38.071Z,48.69
2023-05-08T00:02:40.940Z,48.78
2023-05-08T00:03:43.156Z,48.99
2023-05-08T00:04:45.441Z,48.85
2023-05-08T00:05:47.457Z,48.71
2023-05-08T00:06:49.430Z,48.92
2023-05-08T00:07:51.280Z,48.89
2023-05-08T00:08:56.768Z,48.61
2023-05-08T00:09:58.656Z,48.48
2023-05-08T00:11:00.724Z,48.33
2023-05-08T00:12:03.032Z,48.45
2023-05-08T00:13:05.029Z,48.35
2023-05-08T00:14:06.969Z,48.59
2023-05-08T00:15:09.678Z,48.50
2023-05-08T00:16:12.108Z,48.79
2023-05-08T00:17:14.170Z,48.75
2023-05-08T00:18:15.997Z,48.80
2023-05-08T00:19:17.866Z,48.62
2023-05-08T00:20:19.942Z,48.84
2023-05-08T00:21:21.782Z,48.69
2023-05-08T00:22:24.289Z,48.76
2023-05-08T00:23:26.142Z,48.63
2023-05-08T00:24:28.035Z,48.66
2023-05-08T00:25:29.897Z,48.87
2023-05-08T00:26:32.066Z,48.71
2023-05-08T00:27:33.931Z,48.97
2023-05-08T00:28:35.801Z,48.84
2023-05-08T00:29:38.227Z,48.66
2023-05-08T00:30:40.255Z,48.91
2023-05-08T00:31:42.180Z,48.64
2023-05-08T00:32:44.255Z,48.75
2023-05-08T00:33:46.327Z,48.74
2023-05-08T00:34:48.211Z,48.58
2023-05-08T00:35:50.049Z,48.60
2023-05-08T00:36:52.293Z,48.61
2023-05-08T00:37:54.145Z,48.77
2023-05-08T00:38:56.014Z,48.39
2023-05-08T00:39:57.883Z,48.37
2023-05-08T00:41:02.764Z,48.53
2023-05-08T00:42:04.803Z,48.51
2023-05-08T00:43:06.656Z,48.46
2023-05-08T00:44:08.547Z,48.52
2023-05-08T00:45:12.566Z,48.49
2023-05-08T00:46:15.228Z,48.70
2023-05-08T00:47:17.298Z,48.78
2023-05-08T00:48:21.193Z,48.77
2023-05-08T00:49:23.881Z,48.66
2023-05-08T00:50:26.973Z,48.74
2023-05-08T00:51:29.606Z,48.74
2023-05-08T00:52:32.517Z,48.78
2023-05-08T00:53:38.106Z,48.82
2023-05-08T00:54:40.574Z,48.71
2023-05-08T00:55:43.147Z,48.87
2023-05-08T00:56:48.575Z,48.86
2023-05-08T00:57:51.252Z,48.88
2023-05-08T00:58:53.488Z,48.85
2023-05-08T00:59:57.929Z,48.73
2023-05-08T01:01:00.262Z,49.07
2023-05-08T01:02:03.910Z,48.76
2023-05-08T01:03:06.758Z,48.79
2023-05-08T01:04:09.489Z,48.70
2023-05-08T01:05:11.370Z,48.68
2023-05-08T01:06:13.631Z,48.69
2023-05-08T01:07:17.187Z,48.97
2023-05-08T01:08:19.148Z,49.03
2023-05-08T01:09:20.975Z,48.95
2023-05-08T01:10:23.771Z,49.04
2023-05-08T01:11:44.771Z,49.04
2023-05-08T01:12:59.782Z,49.11
2023-05-08T01:14:27.815Z,49.31
2023-05-08T01:15:33.667Z,49.28
2023-05-08T01:16:44.406Z,49.49
2023-05-08T01:19:37.377Z,49.42
2023-05-08T01:20:58.176Z,49.57
2023-05-08T01:22:09.846Z,49.54
2023-05-08T01:23:39.753Z,49.54
2023-05-08T01:24:51.748Z,49.46
2023-05-08T01:26:09.301Z,49.66
2023-05-08T01:27:36.378Z,49.57
2023-05-08T01:30:20.996Z,49.79
2023-05-08T01:31:43.668Z,49.87
2023-05-08T01:32:52.268Z,49.78
2023-05-08T01:33:58.056Z,49.98
2023-05-08T01:35:19.094Z,49.97
2023-05-08T01:36:31.137Z,50.24
2023-05-08T01:37:45.853Z,50.05
2023-05-08T01:38:57.103Z,50.22
2023-05-08T01:40:00.887Z,49.77
2023-05-08T01:41:15.397Z,49.65
2023-05-08T01:42:53.180Z,49.95
2023-05-08T01:44:01.618Z,49.99
2023-05-08T01:45:07.572Z,49.87
2023-05-08T01:46:14.490Z,50.05
2023-05-08T01:47:20.202Z,50.03
2023-05-08T01:48:34.813Z,50.06
2023-05-08T01:49:43.502Z,50.10
2023-05-08T01:50:48.940Z,50.20
2023-05-08T01:52:00.801Z,49.98
2023-05-08T01:53:06.557Z,49.81
2023-05-08T01:54:12.218Z,49.90
2023-05-08T01:56:29.501Z,50.01
2023-05-08T01:57:35.032Z,49.92
2023-05-08T01:58:37.865Z,50.23
2023-05-08T01:59:42.136Z,50.30
2023-05-08T02:00:45.353Z,50.41
2023-05-08T02:01:50.431Z,50.27
2023-05-08T02:02:56.094Z,50.29
2023-05-08T02:04:00.636Z,50.34
2023-05-08T02:05:06.103Z,50.05
2023-05-08T02:06:12.345Z,50.12
2023-05-08T02:07:15.086Z,50.15
2023-05-08T02:08:18.923Z,50.05
2023-05-08T02:09:23.665Z,50.36
2023-05-08T02:10:28.339Z,50.26
2023-05-08T02:11:32.641Z,50.37
2023-05-08T02:12:36.782Z,50.17
2023-05-08T02:13:39.567Z,50.46
2023-05-08T02:14:43.087Z,50.16
2023-05-08T02:15:49.069Z,50.02
2023-05-08T02:16:54.886Z,50.32
2023-05-08T02:17:58.409Z,50.31
2023-05-08T02:19:02.276Z,50.09
2023-05-08T02:20:06.053Z,50.09
2023-05-08T02:21:08.607Z,50.30
2023-05-08T02:22:12.493Z,50.16
2023-05-08T02:23:16.978Z,50.20
2023-05-08T02:24:20.231Z,50.20
2023-05-08T02:25:23.331Z,50.42
2023-05-08T02:26:27.226Z,50.34
2023-05-08T02:27:30.583Z,50.21
2023-05-08T02:28:34.075Z,50.15
2023-05-08T02:29:37.175Z,50.34
2023-05-08T02:30:41.738Z,50.40
2023-05-08T02:31:45.630Z,50.51
2023-05-08T02:32:49.209Z,50.40
2023-05-08T02:33:53.110Z,50.34
2023-05-08T02:35:03.206Z,50.24
2023-05-08T02:36:01.740Z,50.41
2023-05-08T02:37:05.181Z,50.23
2023-05-08T02:38:09.797Z,50.36
2023-05-08T02:39:14.533Z,50.25
2023-05-08T02:40:19.915Z,50.13
2023-05-08T02:41:24.197Z,50.40
2023-05-08T02:42:26.823Z,50.46
2023-05-08T02:43:29.009Z,50.81
2023-05-08T02:44:31.854Z,50.78
2023-05-08T02:45:41.992Z,50.49
2023-05-08T02:47:04.595Z,50.64
2023-05-08T02:48:13.607Z,50.74
2023-05-08T02:49:37.114Z,50.69
2023-05-08T02:50:45.968Z,50.76
2023-05-08T02:51:54.440Z,50.54
2023-05-08T02:53:06.248Z,50.60
2023-05-08T02:54:11.942Z,50.48
2023-05-08T02:55:29.730Z,50.43
2023-05-08T02:56:36.232Z,50.60
2023-05-08T02:57:44.959Z,50.67
2023-05-08T02:59:11.289Z,50.77
2023-05-08T03:00:26.124Z,50.68
2023-05-08T03:01:31.959Z,50.75
2023-05-08T03:02:44.140Z,50.31
2023-05-08T03:03:50.004Z,50.68
2023-05-08T03:04:58.760Z,50.53
2023-05-08T03:06:02.788Z,50.44
2023-05-08T03:07:06.152Z,50.40
2023-05-08T03:08:11.799Z,50.49
2023-05-08T03:09:19.876Z,50.30
2023-05-08T03:10:26.254Z,50.32
2023-05-08T03:11:31.913Z,50.19
2023-05-08T03:12:37.864Z,50.33
2023-05-08T03:13:42.494Z,50.49
2023-05-08T03:16:07.440Z,50.21
2023-05-08T03:17:12.258Z,50.32
2023-05-08T03:18:17.898Z,50.34
2023-05-08T03:19:32.396Z,50.51
2023-05-08T03:20:41.037Z,50.21
2023-05-08T03:21:45.301Z,50.11
2023-05-08T03:22:48.689Z,50.12
2023-05-08T03:23:53.386Z,50.05
2023-05-08T03:24:57.773Z,50.14
2023-05-08T03:26:02.412Z,50.21
2023-05-08T03:27:05.132Z,50.16
2023-05-08T03:28:07.586Z,50.08
2023-05-08T03:29:11.811Z,50.04
2023-05-08T03:30:16.189Z,50.19
2023-05-08T03:31:19.181Z,50.14
2023-05-08T03:32:23.406Z,50.06
2023-05-08T03:33:27.019Z,50.14
2023-05-08T03:34:30.410Z,50.18
2023-05-08T03:35:36.040Z,50.28
2023-05-08T03:36:38.841Z,50.16
2023-05-08T03:37:41.668Z,50.03
2023-05-08T03:38:43.951Z,49.87
2023-05-08T03:39:46.560Z,49.97
2023-05-08T03:40:49.266Z,49.88
2023-05-08T03:41:51.621Z,49.97
2023-05-08T03:42:54.376Z,49.93
2023-05-08T03:43:58.006Z,49.85
2023-05-08T03:45:02.574Z,49.69
2023-05-08T03:46:05.176Z,49.72
2023-05-08T03:47:07.760Z,49.81
2023-05-08T03:48:10.638Z,49.67
2023-05-08T03:49:14.240Z,49.59
2023-05-08T03:50:16.920Z,49.59
2023-05-08T03:51:19.908Z,49.98
2023-05-08T03:52:22.661Z,49.93
2023-05-08T03:53:25.070Z,49.92
2023-05-08T03:54:26.958Z,49.88
2023-05-08T03:55:30.296Z,49.80
2023-05-08T03:56:33.586Z,49.91
2023-05-08T03:57:42.047Z,49.72
2023-05-08T03:58:53.794Z,49.93
2023-05-08T04:00:20.477Z,50.04
2023-05-08T04:01:38.333Z,49.86
2023-05-08T04:04:17.732Z,49.86
2023-05-08T04:05:34.903Z,49.81
2023-05-08T04:06:49.496Z,49.86
2023-05-08T04:07:53.708Z,49.94
2023-05-08T04:09:16.707Z,50.02
2023-05-08T04:10:40.971Z,50.15
2023-05-08T04:12:02.336Z,50.05
2023-05-08T04:13:22.720Z,49.95
2023-05-08T04:14:28.568Z,49.92
2023-05-08T04:15:34.524Z,49.91
2023-05-08T04:16:39.367Z,50.20
2023-05-08T04:17:44.849Z,50.21
2023-05-08T04:18:49.947Z,50.37
2023-05-08T04:19:55.614Z,50.13
2023-05-08T04:20:59.059Z,50.30
2023-05-08T04:23:18.239Z,50.04
2023-05-08T04:24:21.781Z,49.96
2023-05-08T04:25:25.362Z,49.97
2023-05-08T04:26:28.638Z,50.18
2023-05-08T04:27:31.011Z,50.29
2023-05-08T04:28:34.182Z,50.38
2023-05-08T04:29:36.741Z,50.24
2023-05-08T04:30:39.721Z,50.31
2023-05-08T04:31:42.384Z,50.29
2023-05-08T04:32:46.501Z,50.17
2023-05-08T04:33:49.430Z,50.30
2023-05-08T04:34:51.769Z,50.06
2023-05-08T04:35:54.271Z,50.07
2023-05-08T04:36:56.644Z,50.08
2023-05-08T04:37:58.864Z,50.24
2023-05-08T04:39:00.781Z,49.96
2023-05-08T04:40:03.244Z,50.08
2023-05-08T04:41:05.477Z,50.10
2023-05-08T04:42:07.512Z,49.80
2023-05-08T04:43:09.602Z,49.75
2023-05-08T04:44:11.668Z,49.50
2023-05-08T04:45:14.328Z,49.46
2023-05-08T04:46:16.957Z,49.50
2023-05-08T04:47:19.207Z,49.20
2023-05-08T04:48:21.178Z,49.50
2023-05-08T04:49:23.170Z,49.51
2023-05-08T04:50:25.126Z,49.34
2023-05-08T04:51:26.994Z,49.48
2023-05-08T04:52:28.858Z,49.47
2023-05-08T04:53:31.098Z,49.20
2023-05-08T04:54:33.758Z,49.20
2023-05-08T04:55:35.626Z,49.27
2023-05-08T04:56:37.972Z,49.22
2023-05-08T04:57:39.846Z,49.30
2023-05-08T04:58:41.819Z,48.96
2023-05-08T04:59:43.782Z,50.32
2023-05-08T05:00:45.876Z,49.82
2023-05-08T05:01:47.860Z,49.62
2023-05-08T05:02:49.817Z,49.41
2023-05-08T05:03:51.770Z,49.38
2023-05-08T05:04:53.794Z,49.30
2023-05-08T05:05:59.415Z,48.88
2023-05-08T05:07:02.612Z,48.70
2023-05-08T05:08:04.797Z,48.91
2023-05-08T05:09:06.639Z,48.60
2023-05-08T05:10:09.871Z,48.39
2023-05-08T05:11:11.719Z,48.48
2023-05-08T05:12:13.655Z,48.37
2023-05-08T05:13:15.663Z,48.37
2023-05-08T05:14:17.562Z,48.04
2023-05-08T05:15:19.621Z,47.83
2023-05-08T05:16:21.629Z,47.59
2023-05-08T05:17:23.571Z,47.69
2023-05-08T05:18:25.426Z,47.87
2023-05-08T05:19:27.296Z,47.83
2023-05-08T05:20:29.380Z,48.02
2023-05-08T05:21:31.233Z,47.73
2023-05-08T05:22:33.096Z,47.52
2023-05-08T05:23:35.079Z,47.17
2023-05-08T05:24:37.045Z,46.96
2023-05-08T05:25:38.903Z,47.02
2023-05-08T05:26:41.090Z,48.28
2023-05-08T05:27:42.953Z,47.89
2023-05-08T05:28:44.838Z,47.23
2023-05-08T05:29:46.828Z,46.80
2023-05-08T05:30:49.016Z,46.65
2023-05-08T05:31:50.919Z,46.66
2023-05-08T05:32:53.090Z,46.01
2023-05-08T05:33:55.780Z,46.01
2023-05-08T05:34:57.770Z,46.08
2023-05-08T05:35:59.875Z,46.14
2023-05-08T05:37:01.877Z,46.09
2023-05-08T05:38:04.092Z,46.05
2023-05-08T05:39:06.450Z,46.07
2023-05-08T05:40:10.028Z,46.24
2023-05-08T05:41:12.062Z,45.54
2023-05-08T05:42:14.498Z,45.24
2023-05-08T05:43:16.371Z,44.80
2023-05-08T05:44:18.322Z,44.64
2023-05-08T05:45:20.379Z,44.43
2023-05-08T05:46:22.349Z,44.53
2023-05-08T05:47:24.317Z,44.31
2023-05-08T05:48:26.311Z,44.25
2023-05-08T05:49:28.254Z,44.31
2023-05-08T05:50:30.331Z,44.46
2023-05-08T05:51:32.196Z,44.66
2023-05-08T05:52:34.044Z,44.72
2023-05-08T05:53:35.934Z,44.49
2023-05-08T05:54:38.056Z,44.39
2023-05-08T05:55:39.979Z,43.79
2023-05-08T05:56:41.948Z,44.00
2023-05-08T05:57:43.848Z,44.46
2023-05-08T05:58:45.709Z,44.04
2023-05-08T05:59:47.968Z,43.87
2023-05-08T06:00:50.043Z,43.56
2023-05-08T06:01:53.209Z,43.37
2023-05-08T06:02:55.486Z,42.96
2023-05-08T06:03:57.606Z,43.40
2023-05-08T06:04:59.898Z,42.93
2023-05-08T06:06:01.863Z,42.52
2023-05-08T06:07:03.752Z,42.21
2023-05-08T06:08:07.585Z,41.80
2023-05-08T06:09:09.820Z,41.87
2023-05-08T06:10:12.728Z,41.85
2023-05-08T06:11:14.748Z,41.56
2023-05-08T06:12:16.613Z,41.63
2023-05-08T06:13:18.670Z,41.65
2023-05-08T06:14:20.689Z,41.38
2023-05-08T06:15:22.865Z,41.34
2023-05-08T06:16:24.978Z,42.33
2023-05-08T06:17:27.038Z,41.99
2023-05-08T06:18:29.529Z,41.85
2023-05-08T06:19:31.381Z,41.17
2023-05-08T06:20:33.348Z,41.52
2023-05-08T06:21:35.233Z,41.28
2023-05-08T06:22:37.496Z,41.22
2023-05-08T06:23:39.733Z,40.80
2023-05-08T06:24:41.657Z,41.08
2023-05-08T06:25:43.520Z,40.91
2023-05-08T06:26:45.608Z,40.38
2023-05-08T06:27:48.463Z,40.54
2023-05-08T06:28:51.128Z,40.39
2023-05-08T06:29:53.088Z,40.86
2023-05-08T06:30:55.269Z,40.51
2023-05-08T06:31:57.333Z,40.56
2023-05-08T06:32:59.682Z,40.20
2023-05-08T06:34:01.640Z,40.17
2023-05-08T06:35:05.314Z,39.91
2023-05-08T06:36:08.435Z,40.34
2023-05-08T06:37:10.702Z,40.03
2023-05-08T06:38:13.136Z,39.84
2023-05-08T06:39:14.970Z,39.96
2023-05-08T06:40:17.512Z,39.52
2023-05-08T06:41:19.467Z,39.91
2023-05-08T06:42:21.331Z,39.93
2023-05-08T06:43:23.288Z,40.84
2023-05-08T06:44:25.293Z,40.81
2023-05-08T06:45:27.514Z,40.67
2023-05-08T06:46:29.528Z,40.72
2023-05-08T06:47:31.738Z,40.29
2023-05-08T06:48:33.695Z,40.12
2023-05-08T06:49:36.373Z,39.70
2023-05-08T06:50:39.275Z,39.77
2023-05-08T06:51:41.175Z,39.89
2023-05-08T06:52:43.026Z,39.33
2023-05-08T06:53:44.918Z,39.48
2023-05-08T06:54:46.875Z,39.03
2023-05-08T06:55:49.927Z,39.06
2023-05-08T06:56:53.006Z,39.24
2023-05-08T06:57:55.155Z,39.25
2023-05-08T06:59:07.923Z,39.88
2023-05-08T07:00:00.803Z,39.44
2023-05-08T07:01:02.731Z,39.49
2023-05-08T07:02:04.735Z,38.79
2023-05-08T07:03:06.802Z,39.09
2023-05-08T07:04:08.776Z,39.14
2023-05-08T07:05:10.966Z,38.97
2023-05-08T07:06:13.335Z,38.61
2023-05-08T07:07:15.201Z,39.10
2023-05-08T07:08:17.256Z,39.22
2023-05-08T07:09:19.106Z,39.61
2023-05-08T07:10:22.105Z,39.84
2023-05-08T07:11:24.188Z,39.44
2023-05-08T07:12:26.195Z,39.56
2023-05-08T07:13:28.254Z,39.34
2023-05-08T07:14:30.373Z,39.08
2023-05-08T07:15:32.273Z,39.19
2023-05-08T07:16:34.999Z,38.94
2023-05-08T07:17:37.158Z,38.68
2023-05-08T07:18:39.927Z,38.36
2023-05-08T07:19:41.787Z,38.23
2023-05-08T07:20:43.935Z,37.61
2023-05-08T07:21:45.803Z,38.01
2023-05-08T07:22:47.786Z,38.10
2023-05-08T07:23:49.649Z,38.48
2023-05-08T07:24:51.521Z,38.26
2023-05-08T07:25:53.389Z,38.14
2023-05-08T07:26:55.676Z,38.04
2023-05-08T07:27:59.203Z,37.49
2023-05-08T07:29:01.371Z,37.71
2023-05-08T07:30:04.869Z,37.62
2023-05-08T07:31:06.803Z,37.18
2023-05-08T07:32:08.782Z,37.07
2023-05-08T07:33:12.218Z,37.01
2023-05-08T07:34:14.589Z,36.82
2023-05-08T07:35:16.731Z,36.97
2023-05-08T07:36:19.372Z,36.83
2023-05-08T07:37:22.148Z,37.24
2023-05-08T07:38:24.746Z,37.05
2023-05-08T07:39:26.586Z,36.58
2023-05-08T07:40:28.628Z,36.67
2023-05-08T07:41:30.685Z,36.81
2023-05-08T07:42:38.914Z,36.59
2023-05-08T07:43:40.864Z,36.40
2023-05-08T07:44:53.656Z,36.51
2023-05-08T07:45:47.349Z,36.29
2023-05-08T07:46:49.443Z,36.12
2023-05-08T07:49:03.694Z,36.44
2023-05-08T07:50:06.776Z,36.06
2023-05-08T07:51:09.247Z,35.79
2023-05-08T07:52:11.112Z,35.47
2023-05-08T07:53:12.992Z,35.55
2023-05-08T07:54:15.075Z,35.63
2023-05-08T07:55:19.006Z,36.15
2023-05-08T07:56:21.680Z,35.63
2023-05-08T07:57:24.778Z,35.70
2023-05-08T07:58:26.678Z,35.86
2023-05-08T07:59:28.781Z,35.93
2023-05-08T08:00:30.740Z,35.91
2023-05-08T08:01:32.669Z,36.58
2023-05-08T08:02:34.585Z,36.97
2023-05-08T08:03:37.832Z,36.36
2023-05-08T08:04:39.990Z,36.37
2023-05-08T08:05:42.072Z,35.80
2023-05-08T08:06:44.036Z,35.86
2023-05-08T08:07:46.110Z,35.43
2023-05-08T08:08:47.958Z,35.03
2023-05-08T08:09:49.882Z,35.47
2023-05-08T08:10:52.047Z,35.79
2023-05-08T08:11:54.000Z,35.66
2023-05-08T08:12:55.860Z,35.47
2023-05-08T08:13:57.765Z,36.04
2023-05-08T08:14:59.613Z,36.03
2023-05-08T08:16:01.609Z,36.50
2023-05-08T08:17:03.545Z,36.61
2023-05-08T08:18:05.726Z,36.69
2023-05-08T08:19:08.064Z,36.77
2023-05-08T08:20:11.344Z,36.67
2023-05-08T08:21:13.615Z,36.77
2023-05-08T08:22:15.560Z,36.83
2023-05-08T08:23:17.418Z,36.90
2023-05-08T08:24:19.280Z,36.59
2023-05-08T08:25:21.138Z,36.50
2023-05-08T08:26:23.164Z,36.38
2023-05-08T08:27:25.082Z,36.10
2023-05-08T08:28:27.056Z,35.77
2023-05-08T08:29:29.414Z,35.26
2023-05-08T08:30:31.449Z,35.64
2023-05-08T08:31:33.373Z,36.24
2023-05-08T08:32:35.703Z,35.62
2023-05-08T08:33:37.667Z,35.54
2023-05-08T08:34:39.633Z,35.52
2023-05-08T08:35:41.486Z,35.60
2023-05-08T08:36:43.851Z,35.42
2023-05-08T08:37:45.856Z,35.73
2023-05-08T08:38:47.685Z,36.15
2023-05-08T08:39:49.556Z,35.70
2023-05-08T08:40:51.533Z,35.47
2023-05-08T08:41:53.493Z,35.35
2023-05-08T08:42:55.355Z,35.53
2023-05-08T08:43:57.707Z,35.29
2023-05-08T08:45:00.601Z,35.31
2023-05-08T08:46:06.463Z,35.79
2023-05-08T08:47:10.549Z,35.95
2023-05-08T08:48:13.931Z,36.34
2023-05-08T08:49:19.519Z,35.97
2023-05-08T08:50:22.727Z,35.60
2023-05-08T08:51:34.409Z,35.37
2023-05-08T08:52:57.749Z,35.09
2023-05-08T08:54:11.722Z,34.58
2023-05-08T08:55:16.309Z,34.43
2023-05-08T08:56:22.135Z,35.09
2023-05-08T08:57:28.536Z,35.20
2023-05-08T08:58:39.042Z,35.26
2023-05-08T08:59:43.378Z,35.38
2023-05-08T09:00:47.296Z,35.29
2023-05-08T09:01:52.889Z,35.33
2023-05-08T09:02:56.215Z,35.56
2023-05-08T09:03:58.694Z,35.50
2023-05-08T09:05:03.108Z,35.34
2023-05-08T09:06:06.558Z,35.49
2023-05-08T09:07:08.897Z,35.49
2023-05-08T09:08:11.090Z,35.98
2023-05-08T09:09:13.100Z,35.59
2023-05-08T09:10:16.353Z,35.23
2023-05-08T09:11:18.365Z,35.25
2023-05-08T09:12:20.469Z,35.26
2023-05-08T09:13:22.432Z,35.40
2023-05-08T09:14:25.806Z,35.48
2023-05-08T09:15:28.153Z,35.79
2023-05-08T09:16:30.590Z,34.91
2023-05-08T09:17:33.273Z,34.74
2023-05-08T09:18:35.818Z,34.80
2023-05-08T09:19:38.074Z,34.73
2023-05-08T09:20:40.802Z,34.32
2023-05-08T09:21:43.268Z,33.93
2023-05-08T09:22:45.732Z,33.94
2023-05-08T09:24:00.508Z,33.82
2023-05-08T09:25:03.030Z,33.83
2023-05-08T09:26:05.110Z,34.11
2023-05-08T09:27:11.632Z,33.96
2023-05-08T09:28:22.038Z,33.36
2023-05-08T09:29:24.846Z,33.25
2023-05-08T09:30:26.898Z,34.28
2023-05-08T09:31:37.309Z,34.40
2023-05-08T09:32:41.865Z,34.90
2023-05-08T09:33:44.295Z,34.53
2023-05-08T09:34:50.153Z,34.57
2023-05-08T09:35:52.744Z,34.15
2023-05-08T09:38:06.735Z,34.16
2023-05-08T09:39:11.701Z,33.98
2023-05-08T09:40:21.950Z,34.14
2023-05-08T09:41:24.134Z,34.02
2023-05-08T09:42:29.876Z,33.83
2023-05-08T09:43:31.809Z,33.33
2023-05-08T09:44:50.229Z,33.28
2023-05-08T09:45:52.266Z,33.50
2023-05-08T09:47:12.857Z,33.53
2023-05-08T09:48:14.912Z,33.79
2023-05-08T09:49:17.784Z,33.93
2023-05-08T09:50:19.977Z,34.08
2023-05-08T09:51:23.851Z,33.73
2023-05-08T09:52:30.092Z,33.72
2023-05-08T09:53:32.340Z,33.34
2023-05-08T09:54:34.598Z,33.19
2023-05-08T09:55:48.488Z,33.07
2023-05-08T09:56:51.156Z,33.07
2023-05-08T09:57:59.483Z,32.99
2023-05-08T09:59:03.109Z,32.34
2023-05-08T10:00:11.950Z,32.40
2023-05-08T10:01:35.350Z,32.29
2023-05-08T10:02:40.286Z,32.88
2023-05-08T10:03:47.131Z,32.98
2023-05-08T10:04:49.188Z,33.29
2023-05-08T10:05:51.222Z,32.90
2023-05-08T10:06:58.280Z,32.39
2023-05-08T10:08:23.934Z,32.21
2023-05-08T10:09:27.351Z,32.12
2023-05-08T10:10:30.047Z,33.13
2023-05-08T10:11:32.096Z,32.94
2023-05-08T10:12:34.068Z,33.14
2023-05-08T10:13:36.045Z,33.47
2023-05-08T10:14:37.899Z,33.50
2023-05-08T10:15:43.766Z,33.49
2023-05-08T10:16:48.206Z,33.73
2023-05-08T10:17:56.314Z,33.15
2023-05-08T10:19:00.936Z,33.42
2023-05-08T10:20:06.291Z,33.80
2023-05-08T10:21:08.674Z,33.70
2023-05-08T10:22:11.851Z,33.63
2023-05-08T10:23:15.497Z,32.75
2023-05-08T10:24:19.862Z,32.94
2023-05-08T10:25:22.955Z,33.29
2023-05-08T10:26:28.683Z,33.54
2023-05-08T10:27:40.104Z,33.64
2023-05-08T10:28:55.365Z,33.93
2023-05-08T10:30:01.126Z,33.59
2023-05-08T10:31:03.755Z,33.62
2023-05-08T10:32:11.588Z,33.58
2023-05-08T10:33:15.379Z,33.58
2023-05-08T10:34:21.628Z,33.59
2023-05-08T10:35:24.827Z,33.51
2023-05-08T10:36:29.633Z,33.19
2023-05-08T10:37:34.364Z,33.14
2023-05-08T10:38:37.310Z,32.84
2023-05-08T10:39:41.867Z,32.85
2023-05-08T10:40:47.347Z,33.05
2023-05-08T10:41:50.966Z,33.91
2023-05-08T10:42:53.341Z,33.85
2023-05-08T10:44:00.594Z,33.71
2023-05-08T10:45:05.493Z,33.71
2023-05-08T10:46:11.510Z,33.62
2023-05-08T10:47:17.594Z,33.84
2023-05-08T10:48:38.298Z,33.65
2023-05-08T10:49:47.065Z,34.18
2023-05-08T10:52:33.179Z,34.21
2023-05-08T10:53:47.642Z,34.37
2023-05-08T10:55:00.415Z,34.61
2023-05-08T10:56:02.771Z,34.94
2023-05-08T10:57:12.047Z,35.28
2023-05-08T10:58:24.553Z,35.20
2023-05-08T10:59:28.147Z,34.90
2023-05-08T11:00:54.010Z,34.80
2023-05-08T11:01:59.782Z,34.72
2023-05-08T11:03:10.076Z,34.53
2023-05-08T11:04:21.683Z,34.56
2023-05-08T11:05:24.590Z,34.71
2023-05-08T11:06:47.386Z,34.33
2023-05-08T11:07:59.412Z,34.01
2023-05-08T11:09:01.472Z,34.15
2023-05-08T11:10:09.808Z,34.71
2023-05-08T11:11:32.149Z,34.78
2023-05-08T11:12:35.662Z,34.35
2023-05-08T11:13:44.093Z,34.01
2023-05-08T11:15:01.688Z,33.98
2023-05-08T11:16:04.981Z,34.15
2023-05-08T11:17:08.611Z,33.90
2023-05-08T11:18:10.789Z,33.89
2023-05-08T11:19:20.145Z,34.34
2023-05-08T11:20:23.173Z,34.31
2023-05-08T11:21:25.151Z,33.88
2023-05-08T11:22:31.364Z,33.29
2023-05-08T11:23:35.186Z,33.61
2023-05-08T11:24:39.818Z,34.06
2023-05-08T11:25:43.336Z,34.15
2023-05-08T11:26:50.394Z,33.86
2023-05-08T11:27:56.154Z,33.84
2023-05-08T11:28:58.481Z,33.93
2023-05-08T11:30:24.014Z,34.10
2023-05-08T11:33:06.019Z,33.77
2023-05-08T11:34:28.580Z,33.77
2023-05-08T11:35:48.185Z,33.92
2023-05-08T11:37:02.725Z,33.85
2023-05-08T11:38:23.204Z,33.77
2023-05-08T11:39:25.240Z,33.91
2023-05-08T11:40:49.649Z,33.41
2023-05-08T11:41:51.834Z,33.55
2023-05-08T11:42:55.523Z,33.27
2023-05-08T11:44:04.044Z,33.33
2023-05-08T11:45:11.921Z,32.49
2023-05-08T11:46:19.853Z,32.64
2023-05-08T11:47:22.862Z,33.06
2023-05-08T11:48:24.889Z,32.88
2023-05-08T11:49:29.609Z,32.99
2023-05-08T11:50:31.997Z,33.73
2023-05-08T11:51:35.819Z,33.81
2023-05-08T11:52:39.822Z,33.37
2023-05-08T11:53:43.612Z,33.38
2023-05-08T11:54:45.574Z,33.26
2023-05-08T11:55:48.545Z,33.61
2023-05-08T11:58:13.759Z,33.37
2023-05-08T11:59:16.786Z,33.45
2023-05-08T12:00:21.558Z,33.06
2023-05-08T12:01:24.923Z,33.01
2023-05-08T12:02:42.082Z,33.09
2023-05-08T12:03:46.430Z,33.65
2023-05-08T12:04:48.727Z,33.92
2023-05-08T12:05:53.130Z,33.41
2023-05-08T12:06:58.169Z,33.21
2023-05-08T12:08:00.114Z,33.11
2023-05-08T12:09:02.526Z,32.98
2023-05-08T12:10:05.936Z,32.81
2023-05-08T12:11:08.422Z,32.75
2023-05-08T12:12:10.287Z,32.40
2023-05-08T12:13:29.351Z,32.84
2023-05-08T12:14:35.256Z,32.83
2023-05-08T12:15:37.891Z,32.73
2023-05-08T12:16:40.201Z,32.66
2023-05-08T12:17:42.633Z,32.26
2023-05-08T12:18:44.837Z,32.72
2023-05-08T12:19:46.789Z,32.72
2023-05-08T12:20:57.027Z,32.84
2023-05-08T12:21:59.801Z,32.84
2023-05-08T12:23:02.816Z,32.82
2023-05-08T12:24:06.751Z,32.82
2023-05-08T12:25:10.481Z,32.81
2023-05-08T12:26:13.108Z,32.94
2023-05-08T12:27:15.182Z,32.87
2023-05-08T12:28:17.069Z,33.07
2023-05-08T12:29:19.327Z,33.06
2023-05-08T12:30:22.029Z,33.05
2023-05-08T12:31:24.610Z,33.30
2023-05-08T12:32:28.982Z,32.66
2023-05-08T12:33:32.362Z,32.09
2023-05-08T12:34:35.455Z,32.05
2023-05-08T12:35:39.412Z,32.19
2023-05-08T12:36:41.442Z,32.18
2023-05-08T12:37:46.442Z,32.37
2023-05-08T12:38:50.276Z,32.11
2023-05-08T12:39:52.987Z,32.40
2023-05-08T12:40:55.288Z,32.39
2023-05-08T12:41:58.519Z,32.37
2023-05-08T12:43:03.193Z,32.22
2023-05-08T12:44:08.951Z,32.17
2023-05-08T12:45:24.025Z,31.98
2023-05-08T12:46:26.116Z,31.76
2023-05-08T12:47:28.530Z,32.28
2023-05-08T12:48:31.184Z,32.04
2023-05-08T12:49:33.141Z,31.72
2023-05-08T12:50:37.845Z,31.90
2023-05-08T12:51:43.624Z,32.07
2023-05-08T12:52:46.746Z,32.31
2023-05-08T12:53:50.172Z,32.48
2023-05-08T12:54:52.056Z,31.98
2023-05-08T12:55:56.821Z,31.92
2023-05-08T12:56:58.821Z,31.58
2023-05-08T12:58:06.147Z,31.77
2023-05-08T12:59:09.305Z,31.67
2023-05-08T13:00:17.426Z,31.14
2023-05-08T13:01:19.966Z,31.23
2023-05-08T13:02:22.562Z,31.20
2023-05-08T13:03:27.839Z,31.56
2023-05-08T13:04:35.785Z,31.74
2023-05-08T13:05:44.756Z,32.29
2023-05-08T13:06:57.648Z,32.35
2023-05-08T13:09:15.628Z,31.16
2023-05-08T13:10:19.276Z,31.61
2023-05-08T13:11:32.315Z,31.49
2023-05-08T13:12:34.305Z,31.61
2023-05-08T13:13:36.580Z,31.22
2023-05-08T13:14:38.847Z,31.20
2023-05-08T13:15:41.572Z,31.74
2023-05-08T13:16:47.023Z,31.74
2023-05-08T13:18:07.878Z,31.79
2023-05-08T13:19:10.297Z,32.26
2023-05-08T13:20:12.894Z,32.71
2023-05-08T13:21:15.030Z,32.34
2023-05-08T13:22:16.857Z,32.55
2023-05-08T13:23:20.126Z,32.49
2023-05-08T13:24:22.081Z,32.48
2023-05-08T13:25:24.655Z,32.46
2023-05-08T13:26:26.635Z,32.63
2023-05-08T13:27:28.699Z,32.54
2023-05-08T13:28:30.575Z,32.28
2023-05-08T13:29:32.538Z,32.05
2023-05-08T13:30:35.738Z,32.01
2023-05-08T13:31:37.827Z,31.98
2023-05-08T13:32:39.820Z,32.15
2023-05-08T13:33:41.714Z,32.26
2023-05-08T13:34:49.615Z,32.56
2023-05-08T13:35:47.561Z,32.57
2023-05-08T13:36:49.513Z,32.48
2023-05-08T13:37:51.347Z,32.31
2023-05-08T13:38:53.197Z,32.56
2023-05-08T13:39:55.659Z,32.59
2023-05-08T13:40:57.636Z,32.38
2023-05-08T13:41:59.487Z,32.35
2023-05-08T13:43:01.689Z,32.67
2023-05-08T13:44:03.635Z,32.78
2023-05-08T13:45:08.566Z,32.85
2023-05-08T13:46:10.558Z,32.88
2023-05-08T13:47:12.640Z,33.03
2023-05-08T13:48:14.603Z,32.90
2023-05-08T13:49:16.574Z,33.28
2023-05-08T13:50:19.073Z,33.28
2023-05-08T13:51:21.042Z,33.25
2023-05-08T13:52:22.985Z,33.30
2023-05-08T13:53:24.870Z,33.15
2023-05-08T13:54:27.188Z,33.17
2023-05-08T13:55:29.039Z,33.01
2023-05-08T13:56:31.202Z,32.96
2023-05-08T13:57:33.397Z,32.78
2023-05-08T13:58:35.447Z,32.56
2023-05-08T13:59:37.488Z,32.63
2023-05-08T14:00:39.442Z,32.74
2023-05-08T14:01:41.426Z,32.92
2023-05-08T14:02:43.404Z,32.96
2023-05-08T14:03:46.731Z,32.88
2023-05-08T14:04:48.714Z,32.72
2023-05-08T14:05:50.781Z,32.66
2023-05-08T14:06:52.750Z,33.05
2023-05-08T14:07:54.603Z,33.11
2023-05-08T14:08:57.276Z,32.61